Terminal Aerodrome Forecast
Issued by NWS

Home | Current Version | Previous Version | Text Only | Print | Product List | Glossary On
Versions: 1 2 3 4 5 6 7 8 9 10 11 12 13 14 15 16 17 18 19 20 21 22 23 24 25 26 27 28 29 30 31 32 33 34 35 36
000
FTUS45 KLKN 201733
TAFEKO
TAF
KEKO 201733Z 2018/2118 22008KT P6SM VCTS BKN080CB
      TEMPO 2021/2101 VRB20G30KT 5SM -TSRA OVC050CB
     FM210300 15007KT P6SM -SHRA BKN070 BKN200
     FM211200 VRB03KT P6SM BKN100 BKN200
     FM211700 07005KT P6SM VCSH BKN080 BKN200=

USA.gov is the U.S. government's official web portal to all federal, state and local government web resources and services.